createdAt,value
2019-02-05T00:00:35.851Z,3.10
2019-02-05T00:03:21.148Z,3.10
2019-02-05T00:06:01.677Z,3.20
2019-02-05T00:08:42.499Z,3.10
2019-02-05T00:11:23.255Z,3.10
2019-02-05T00:14:04.373Z,3.10
2019-02-05T00:16:44.910Z,3.10
2019-02-05T00:19:26.395Z,3.10
2019-02-05T00:22:06.907Z,3.20
2019-02-05T00:24:48.007Z,3.10
2019-02-05T00:27:29.281Z,3.20
2019-02-05T00:30:10.061Z,3.20
2019-02-05T00:32:51.475Z,3.20
2019-02-05T00:35:32.719Z,3.20
2019-02-05T00:38:13.444Z,3.20
2019-02-05T00:43:37.017Z,3.20
2019-02-05T00:46:17.497Z,3.20
2019-02-05T00:48:59.125Z,3.20
2019-02-05T00:51:39.546Z,3.20
2019-02-05T00:54:20.483Z,3.20
2019-02-05T00:57:02.081Z,3.20
2019-02-05T00:59:43.445Z,3.20
2019-02-05T01:02:24.559Z,3.20
2019-02-05T01:05:05.376Z,3.20
2019-02-05T01:07:46.185Z,3.20
2019-02-05T01:13:09.140Z,3.20
2019-02-05T01:15:50.127Z,3.20
2019-02-05T01:18:30.579Z,3.20
2019-02-05T01:21:12.118Z,3.30
2019-02-05T01:23:52.965Z,3.20
2019-02-05T01:26:33.749Z,3.20
2019-02-05T01:29:14.575Z,3.30
2019-02-05T01:31:55.896Z,3.30
2019-02-05T01:34:36.425Z,3.30
2019-02-05T01:37:17.149Z,3.30
2019-02-05T01:39:58.109Z,3.30
2019-02-05T01:42:38.799Z,3.30
2019-02-05T01:45:20.305Z,3.30
2019-02-05T01:48:00.962Z,3.20
2019-02-05T01:50:41.737Z,3.30
2019-02-05T01:53:21.096Z,3.30
2019-02-05T01:56:02.136Z,3.30
2019-02-05T02:02:02.192Z,3.30
2019-02-05T02:04:43.214Z,3.30
2019-02-05T02:07:23.911Z,3.30
2019-02-05T02:10:04.943Z,3.30
2019-02-05T02:12:46.307Z,3.30
2019-02-05T02:15:27.319Z,3.30
2019-02-05T02:18:08.290Z,3.30
2019-02-05T02:20:49.218Z,3.30
2019-02-05T02:23:30.080Z,3.30
2019-02-05T02:26:10.860Z,3.30
2019-02-05T02:28:52.205Z,3.30
2019-02-05T02:31:33.477Z,3.30
2019-02-05T02:34:14.442Z,3.30
2019-02-05T02:36:55.178Z,3.30
2019-02-05T02:39:36.241Z,3.30
2019-02-05T02:44:59.217Z,3.30
2019-02-05T02:47:39.942Z,3.30
2019-02-05T02:50:20.775Z,3.30
2019-02-05T02:53:01.935Z,3.30
2019-02-05T02:55:43.192Z,3.30
2019-02-05T02:58:24.351Z,3.30
2019-02-05T03:01:05.940Z,3.30
2019-02-05T03:03:46.920Z,3.30
2019-02-05T03:06:27.907Z,3.30
2019-02-05T03:09:09.314Z,3.30
2019-02-05T03:11:50.431Z,3.30
2019-02-05T03:14:31.277Z,3.30
2019-02-05T03:17:12.556Z,3.30
2019-02-05T03:19:53.129Z,3.30
2019-02-05T03:22:33.743Z,3.30
2019-02-05T03:25:14.577Z,3.30
2019-02-05T03:27:54.417Z,3.30
2019-02-05T03:34:11.988Z,3.30
2019-02-05T03:36:53.211Z,3.40
2019-02-05T03:39:34.580Z,3.40
2019-02-05T03:45:34.811Z,3.40
2019-02-05T03:48:16.106Z,3.40
2019-02-05T03:50:57.839Z,3.40
2019-02-05T03:53:38.754Z,3.40
2019-02-05T03:56:20.060Z,3.40
2019-02-05T03:59:00.901Z,3.40
2019-02-05T04:01:41.939Z,3.40
2019-02-05T04:04:22.741Z,3.40
2019-02-05T04:07:03.433Z,3.40
2019-02-05T04:09:44.218Z,3.40
2019-02-05T04:12:25.006Z,3.40
2019-02-05T04:15:06.644Z,3.40
2019-02-05T04:20:52.512Z,3.40
2019-02-05T04:23:33.016Z,3.40
2019-02-05T04:26:42.974Z,3.40
2019-02-05T04:29:52.736Z,3.40
2019-02-05T04:32:44.617Z,3.40
2019-02-05T04:35:58.023Z,3.40
2019-02-05T04:38:53.371Z,3.40
2019-02-05T04:42:01.153Z,3.40
2019-02-05T04:44:42.444Z,3.40
2019-02-05T04:47:23.399Z,3.40
2019-02-05T04:50:03.908Z,3.40
2019-02-05T04:52:44.678Z,3.40
2019-02-05T04:55:25.442Z,3.40
2019-02-05T04:58:06.312Z,3.40
2019-02-05T05:00:47.249Z,3.40
2019-02-05T05:03:28.455Z,3.40
2019-02-05T05:12:41.773Z,3.40
2019-02-05T05:15:23.264Z,3.40
2019-02-05T05:20:46.840Z,3.40
2019-02-05T05:23:27.705Z,3.40
2019-02-05T05:26:08.859Z,3.40
2019-02-05T05:28:49.621Z,3.40
2019-02-05T05:31:30.357Z,3.40
2019-02-05T05:34:11.527Z,3.40
2019-02-05T05:36:52.343Z,3.40
2019-02-05T05:39:33.146Z,3.40
2019-02-05T05:42:14.040Z,3.40
2019-02-05T05:44:43.590Z,3.40
2019-02-05T05:47:31.919Z,3.40
2019-02-05T05:50:21.281Z,3.40
2019-02-05T05:53:02.846Z,3.40
2019-02-05T05:55:43.754Z,3.40
2019-02-05T05:58:24.972Z,3.40
2019-02-05T06:01:06.346Z,3.40
2019-02-05T06:03:46.884Z,3.50
2019-02-05T06:06:27.982Z,3.40
2019-02-05T06:09:08.862Z,3.50
2019-02-05T06:15:07.437Z,3.50
2019-02-05T06:17:49.871Z,3.50
2019-02-05T06:23:13.235Z,3.50
2019-02-05T06:25:54.730Z,3.50
2019-02-05T06:28:35.221Z,3.50
2019-02-05T06:31:16.186Z,3.50
2019-02-05T06:33:57.524Z,3.50
2019-02-05T06:36:57.646Z,3.50
2019-02-05T06:39:38.376Z,3.50
2019-02-05T06:45:01.921Z,3.50
2019-02-05T06:47:42.662Z,3.50
2019-02-05T06:50:27.181Z,3.50
2019-02-05T06:53:08.543Z,3.50
2019-02-05T06:55:49.484Z,3.50
2019-02-05T06:58:30.698Z,3.50
2019-02-05T07:01:12.310Z,3.50
2019-02-05T07:03:52.889Z,3.60
2019-02-05T07:06:34.271Z,3.60
2019-02-05T07:09:15.744Z,3.60
2019-02-05T07:11:56.709Z,3.60
2019-02-05T07:14:37.389Z,3.60
2019-02-05T07:17:18.741Z,3.60
2019-02-05T07:19:59.616Z,3.60
2019-02-05T07:22:40.339Z,3.60
2019-02-05T07:25:21.599Z,3.60
2019-02-05T07:28:02.420Z,3.60
2019-02-05T07:30:43.892Z,3.60
2019-02-05T07:33:24.937Z,3.60
2019-02-05T07:36:05.691Z,3.60
2019-02-05T07:38:46.656Z,3.60
2019-02-05T07:41:28.091Z,3.60
2019-02-05T07:44:08.888Z,3.60
2019-02-05T07:46:49.455Z,3.60
2019-02-05T07:49:50.229Z,3.60
2019-02-05T07:52:31.735Z,3.60
2019-02-05T07:58:30.606Z,3.60
2019-02-05T08:01:18.957Z,3.60
2019-02-05T08:06:58.232Z,3.70
2019-02-05T08:09:37.602Z,3.70
2019-02-05T08:12:18.376Z,3.70
2019-02-05T08:14:59.418Z,3.70
2019-02-05T08:17:40.126Z,3.70
2019-02-05T08:20:21.499Z,3.80
2019-02-05T08:23:02.194Z,3.80
2019-02-05T08:25:42.750Z,3.80
2019-02-05T08:28:23.623Z,3.80
2019-02-05T08:31:04.476Z,3.80
2019-02-05T08:33:45.895Z,3.90
2019-02-05T08:36:26.511Z,3.90
2019-02-05T08:39:07.967Z,3.90
2019-02-05T08:41:48.747Z,3.90
2019-02-05T08:44:30.403Z,3.90
2019-02-05T08:47:11.897Z,3.90
2019-02-05T08:49:53.079Z,3.90
2019-02-05T08:52:34.411Z,3.90
2019-02-05T08:55:15.262Z,4.00
2019-02-05T08:57:56.641Z,4.00
2019-02-05T09:00:37.961Z,4.00
2019-02-05T09:03:17.534Z,4.10
2019-02-05T09:05:58.357Z,4.20
2019-02-05T09:08:38.925Z,4.30
2019-02-05T09:11:20.481Z,4.30
2019-02-05T09:14:10.529Z,4.30
2019-02-05T09:16:44.395Z,4.30
2019-02-05T09:19:25.760Z,4.30
2019-02-05T09:22:07.267Z,4.30
2019-02-05T09:24:47.999Z,4.30
2019-02-05T09:27:28.862Z,4.20
2019-02-05T09:30:10.371Z,4.20
2019-02-05T09:32:51.816Z,4.30
2019-02-05T09:35:33.323Z,4.30
2019-02-05T09:38:17.152Z,4.30
2019-02-05T09:40:52.275Z,4.30
2019-02-05T09:43:40.685Z,4.30
2019-02-05T09:46:10.209Z,4.40
2019-02-05T09:48:39.736Z,4.40
2019-02-05T09:51:28.174Z,4.40
2019-02-05T09:54:16.451Z,4.40
2019-02-05T09:56:57.038Z,4.50
2019-02-05T09:59:45.074Z,4.50
2019-02-05T10:02:20.051Z,4.60
2019-02-05T10:05:01.330Z,4.60
2019-02-05T10:07:42.070Z,4.70
2019-02-05T10:10:23.348Z,4.70
2019-02-05T10:13:04.692Z,4.70
2019-02-05T10:15:45.296Z,4.80
2019-02-05T10:18:26.388Z,4.90
2019-02-05T10:21:07.777Z,4.90
2019-02-05T10:23:48.722Z,4.90
2019-02-05T10:26:30.114Z,5.00
2019-02-05T10:29:13.613Z,5.00
2019-02-05T10:31:54.954Z,5.00
2019-02-05T10:34:36.079Z,5.00
2019-02-05T10:37:15.540Z,5.10
2019-02-05T10:39:56.506Z,5.10
2019-02-05T10:42:37.481Z,5.10
2019-02-05T10:45:18.937Z,5.10
2019-02-05T10:47:59.974Z,5.20
2019-02-05T10:50:40.870Z,5.20
2019-02-05T10:59:33.931Z,5.50
2019-02-05T11:02:15.347Z,5.40
2019-02-05T11:04:56.279Z,5.40
2019-02-05T11:07:36.837Z,5.40
2019-02-05T11:10:18.655Z,5.40
2019-02-05T11:12:59.355Z,5.50
2019-02-05T11:15:40.803Z,5.50
2019-02-05T11:18:22.399Z,5.40
2019-02-05T11:21:04.460Z,5.50
2019-02-05T11:23:45.157Z,5.50
2019-02-05T11:26:26.145Z,5.50
2019-02-05T11:29:06.711Z,5.50
2019-02-05T11:31:47.807Z,5.50
2019-02-05T11:34:28.412Z,5.50
2019-02-05T11:37:09.527Z,5.40
2019-02-05T11:39:57.871Z,5.40
2019-02-05T11:42:40.257Z,5.50
2019-02-05T11:45:20.831Z,5.50
2019-02-05T11:48:00.641Z,5.50
2019-02-05T11:50:48.990Z,5.50
2019-02-05T11:53:30.532Z,5.60
2019-02-05T11:56:11.795Z,5.60
2019-02-05T11:58:53.478Z,5.60
2019-02-05T12:01:38.945Z,5.60
2019-02-05T12:04:15.611Z,5.60
2019-02-05T12:07:04.130Z,5.70
2019-02-05T12:09:45.460Z,5.70
2019-02-05T12:12:26.508Z,5.70
2019-02-05T12:15:08.020Z,5.70
2019-02-05T12:17:49.551Z,5.70
2019-02-05T12:20:30.422Z,5.80
2019-02-05T12:23:19.104Z,5.80
2019-02-05T12:26:00.330Z,5.80
2019-02-05T12:28:41.812Z,5.80
2019-02-05T12:31:22.600Z,5.80
2019-02-05T12:34:03.870Z,5.80
2019-02-05T12:36:44.730Z,5.80
2019-02-05T12:39:26.157Z,5.80
2019-02-05T12:42:05.673Z,5.90
2019-02-05T12:44:54.026Z,5.90
2019-02-05T12:47:35.562Z,5.90
2019-02-05T12:50:16.990Z,5.90
2019-02-05T12:52:58.454Z,6.00
2019-02-05T12:55:39.863Z,6.00
2019-02-05T12:58:20.590Z,6.00
2019-02-05T13:01:01.561Z,6.00
2019-02-05T13:03:42.673Z,6.10
2019-02-05T13:06:24.090Z,6.00
2019-02-05T13:09:05.168Z,6.10
2019-02-05T13:11:46.411Z,6.10
2019-02-05T13:14:26.906Z,6.20
2019-02-05T13:17:07.846Z,6.20
2019-02-05T13:19:49.355Z,6.30
2019-02-05T13:22:29.969Z,6.30
2019-02-05T13:25:10.779Z,6.30
2019-02-05T13:27:51.980Z,6.30
2019-02-05T13:30:32.739Z,6.30
2019-02-05T13:33:13.961Z,6.40
2019-02-05T13:35:55.339Z,6.30
2019-02-05T13:38:34.743Z,6.30
2019-02-05T13:41:15.713Z,6.30
2019-02-05T13:43:56.296Z,6.30
2019-02-05T13:46:36.907Z,6.30
2019-02-05T13:49:17.427Z,6.40
2019-02-05T13:51:58.657Z,6.40
2019-02-05T13:54:40.104Z,6.40
2019-02-05T13:57:21.311Z,6.40
2019-02-05T14:00:01.992Z,6.50
2019-02-05T14:05:51.011Z,6.40
2019-02-05T14:08:31.702Z,6.40
2019-02-05T14:11:11.267Z,6.40
2019-02-05T14:13:59.584Z,6.40
2019-02-05T14:16:40.449Z,6.40
2019-02-05T14:19:21.771Z,6.30
2019-02-05T14:22:02.634Z,6.30
2019-02-05T14:24:44.039Z,6.30
2019-02-05T14:27:25.476Z,6.30
2019-02-05T14:30:06.819Z,6.30
2019-02-05T14:32:48.122Z,6.30
2019-02-05T14:35:29.356Z,6.30
2019-02-05T14:38:10.315Z,6.30
2019-02-05T14:40:51.521Z,6.30
2019-02-05T14:43:32.933Z,6.30
2019-02-05T14:46:14.262Z,6.30
2019-02-05T14:48:55.276Z,6.20
2019-02-05T14:51:36.816Z,6.20
2019-02-05T14:54:13.090Z,6.10
2019-02-05T14:56:42.835Z,6.10
2019-02-05T14:59:12.195Z,6.10
2019-02-05T15:01:43.428Z,6.10
2019-02-05T15:04:31.864Z,6.20
2019-02-05T15:07:20.295Z,6.10
2019-02-05T15:10:02.746Z,6.10
2019-02-05T15:12:43.527Z,6.10
2019-02-05T15:15:24.540Z,6.10
2019-02-05T15:18:06.159Z,6.10
2019-02-05T15:20:46.855Z,6.10
2019-02-05T15:23:28.235Z,6.10
2019-02-05T15:26:09.011Z,6.10
2019-02-05T15:28:50.132Z,6.10
2019-02-05T15:34:30.643Z,5.90
2019-02-05T15:40:24.007Z,6.10
2019-02-05T15:43:04.833Z,6.00
2019-02-05T15:45:46.308Z,6.10
2019-02-05T15:48:27.513Z,6.10
2019-02-05T15:51:08.215Z,6.10
2019-02-05T15:53:49.091Z,6.10
2019-02-05T15:56:30.369Z,6.10
2019-02-05T15:59:11.729Z,6.10
2019-02-05T16:01:52.927Z,6.20
2019-02-05T16:04:33.729Z,6.20
2019-02-05T16:10:14.969Z,6.20
2019-02-05T16:12:55.649Z,6.20
2019-02-05T16:15:37.071Z,6.10
2019-02-05T16:18:18.404Z,6.20
2019-02-05T16:20:59.605Z,6.10
2019-02-05T16:23:40.878Z,6.10
2019-02-05T16:26:22.294Z,6.10
2019-02-05T16:29:03.002Z,6.10
2019-02-05T16:31:43.865Z,6.10
2019-02-05T16:34:25.194Z,6.20
2019-02-05T16:37:06.707Z,6.20
2019-02-05T16:39:47.574Z,6.10
2019-02-05T16:42:28.580Z,6.10
2019-02-05T16:45:09.379Z,6.10
2019-02-05T16:47:50.674Z,6.10
2019-02-05T16:50:32.157Z,6.10
2019-02-05T16:53:14.652Z,6.10
2019-02-05T16:55:55.749Z,6.10
2019-02-05T16:58:36.731Z,6.00
2019-02-05T17:01:18.118Z,6.00
2019-02-05T17:03:58.757Z,6.00
2019-02-05T17:06:38.318Z,6.00
2019-02-05T17:09:18.966Z,6.00
2019-02-05T17:12:00.404Z,6.00
2019-02-05T17:14:41.072Z,5.90
2019-02-05T17:17:22.684Z,5.90
2019-02-05T17:20:03.547Z,5.80
2019-02-05T17:22:44.898Z,5.80
2019-02-05T17:25:25.713Z,5.70
2019-02-05T17:28:06.579Z,5.70
2019-02-05T17:30:47.967Z,5.60
2019-02-05T17:33:29.377Z,5.50
2019-02-05T17:36:10.023Z,5.50
2019-02-05T17:38:51.182Z,5.40
2019-02-05T17:41:31.891Z,5.40
2019-02-05T17:44:13.189Z,5.30
2019-02-05T17:46:54.367Z,5.20
2019-02-05T17:49:35.663Z,5.10
2019-02-05T17:52:17.185Z,5.00
2019-02-05T17:54:57.829Z,5.00
2019-02-05T17:57:39.269Z,4.90
2019-02-05T18:00:20.354Z,4.90
2019-02-05T18:03:01.819Z,4.80
2019-02-05T18:05:42.473Z,4.80
2019-02-05T18:08:23.959Z,4.70
2019-02-05T18:11:05.482Z,4.60
2019-02-05T18:13:46.126Z,4.50
2019-02-05T18:16:27.403Z,4.50
2019-02-05T18:19:08.680Z,4.40
2019-02-05T18:21:49.859Z,4.40
2019-02-05T18:24:30.544Z,4.40
2019-02-05T18:27:11.832Z,4.40
2019-02-05T18:29:53.292Z,4.30
2019-02-05T18:32:34.549Z,4.30
2019-02-05T18:35:14.224Z,4.20
2019-02-05T18:38:02.894Z,4.20
2019-02-05T18:40:44.330Z,4.10
2019-02-05T18:43:25.418Z,4.10
2019-02-05T18:46:06.580Z,4.10
2019-02-05T18:48:47.845Z,4.10
2019-02-05T18:51:28.578Z,4.00
2019-02-05T18:54:14.077Z,4.00
2019-02-05T18:56:54.774Z,3.90
2019-02-05T18:59:36.130Z,3.90
2019-02-05T19:02:16.805Z,3.80
2019-02-05T19:04:58.294Z,3.70
2019-02-05T19:07:39.877Z,3.70
2019-02-05T19:10:20.984Z,3.70
2019-02-05T19:13:02.304Z,3.60
2019-02-05T19:15:43.778Z,3.60
2019-02-05T19:18:24.738Z,3.60
2019-02-05T19:21:05.618Z,3.60
2019-02-05T19:23:35.463Z,3.60
2019-02-05T19:26:44.718Z,3.60
2019-02-05T19:29:26.189Z,3.60
2019-02-05T19:32:07.093Z,3.60
2019-02-05T19:34:48.234Z,3.70
2019-02-05T19:37:28.893Z,3.70
2019-02-05T19:40:09.528Z,3.70
2019-02-05T19:42:50.247Z,3.70
2019-02-05T19:45:49.956Z,3.70
2019-02-05T19:51:29.210Z,3.80
2019-02-05T19:54:10.811Z,3.80
2019-02-05T19:59:38.254Z,3.80
2019-02-05T20:02:28.437Z,3.80
2019-02-05T20:04:59.013Z,3.80
2019-02-05T20:07:47.440Z,3.80
2019-02-05T20:10:29.034Z,3.80
2019-02-05T20:13:10.971Z,3.80
2019-02-05T20:15:52.486Z,3.70
2019-02-05T20:18:33.733Z,3.70
2019-02-05T20:27:26.143Z,3.50
2019-02-05T20:30:30.483Z,3.50
2019-02-05T20:36:20.871Z,3.50
2019-02-05T20:39:01.881Z,3.40
2019-02-05T20:41:43.298Z,3.40
2019-02-05T20:44:24.575Z,3.40
2019-02-05T20:47:05.439Z,3.30
2019-02-05T20:49:46.784Z,3.30
2019-02-05T20:52:27.829Z,3.30
2019-02-05T20:55:08.557Z,3.20
2019-02-05T20:57:49.420Z,3.20
2019-02-05T21:00:30.709Z,3.20
2019-02-05T21:03:11.498Z,3.10
2019-02-05T21:05:53.142Z,3.10
2019-02-05T21:08:34.603Z,3.10
2019-02-05T21:11:15.765Z,3.10
2019-02-05T21:13:57.195Z,3.10
2019-02-05T21:16:37.940Z,3.00
2019-02-05T21:19:19.068Z,3.00
2019-02-05T21:22:00.339Z,2.90
2019-02-05T21:24:41.065Z,2.90
2019-02-05T21:27:20.531Z,2.90
2019-02-05T21:30:01.531Z,2.90
2019-02-05T21:32:42.798Z,2.90
2019-02-05T21:35:23.617Z,2.90
2019-02-05T21:38:04.186Z,2.80
2019-02-05T21:40:45.068Z,2.80
2019-02-05T21:43:25.950Z,2.80
2019-02-05T21:46:06.577Z,2.80
2019-02-05T21:48:47.429Z,2.70
2019-02-05T21:51:40.088Z,2.70
2019-02-05T21:54:11.898Z,2.70
2019-02-05T21:56:52.890Z,2.70
2019-02-05T21:59:34.207Z,2.70
2019-02-05T22:02:15.739Z,2.60
2019-02-05T22:04:57.309Z,2.60
2019-02-05T22:07:39.026Z,2.60
2019-02-05T22:10:20.044Z,2.50
2019-02-05T22:13:02.433Z,2.50
2019-02-05T22:15:42.759Z,2.50
2019-02-05T22:18:24.169Z,2.50
2019-02-05T22:24:17.815Z,2.40
2019-02-05T22:26:58.544Z,2.40
2019-02-05T22:29:39.799Z,2.40
2019-02-05T22:32:20.437Z,2.40
2019-02-05T22:35:01.293Z,2.40
2019-02-05T22:37:42.481Z,2.40
2019-02-05T22:40:23.924Z,2.40
2019-02-05T22:46:16.025Z,2.40
2019-02-05T22:49:04.365Z,2.30
2019-02-05T22:51:45.333Z,2.30
2019-02-05T22:54:26.827Z,2.30
2019-02-05T22:57:08.162Z,2.30
2019-02-05T22:59:49.663Z,2.30
2019-02-05T23:02:31.177Z,2.30
2019-02-05T23:05:38.813Z,2.30
2019-02-05T23:08:19.832Z,2.20
2019-02-05T23:11:03.445Z,2.20
2019-02-05T23:13:44.048Z,2.20
2019-02-05T23:16:25.101Z,2.20
2019-02-05T23:19:06.138Z,2.20
2019-02-05T23:21:47.260Z,2.30
2019-02-05T23:24:28.019Z,2.20
2019-02-05T23:27:08.705Z,2.20
2019-02-05T23:29:48.215Z,2.20
2019-02-05T23:32:29.115Z,2.20
2019-02-05T23:35:09.960Z,2.20
2019-02-05T23:37:49.639Z,2.20
2019-02-05T23:40:31.115Z,2.20
2019-02-05T23:43:12.441Z,2.20
2019-02-05T23:46:01.334Z,2.10
2019-02-05T23:48:42.153Z,2.20
2019-02-05T23:51:23.403Z,2.20
2019-02-05T23:54:04.935Z,2.20
2019-02-05T23:56:45.535Z,2.20
2019-02-05T23:59:26.080Z,2.20
